Time;durP1;ratioP1;P1;durP2;ratioP2;P2;SDS_P1;SDS_P2;PMS_P1;PMS_P2;Temp;Humidity;BMP_temperature;BMP_pressure;BME280_temperature;BME280_humidity;BME280_pressure;Samples;Min_cycle;Max_cycle;Signal;HPM_P1;HPM_P2
2023/07/29 00:01:10;;;;;;;6.90;6.53;;;17.70;83.50;;;;;;6221543;28;20230;-82
2023/07/29 00:04:13;;;;;;;7.03;6.73;;;17.70;83.50;;;;;;6236257;28;20239;-82
2023/07/29 00:07:16;;;;;;;6.77;6.47;;;17.60;83.60;;;;;;6223045;28;20308;-82
2023/07/29 00:10:19;;;;;;;6.40;6.10;;;17.50;83.60;;;;;;6207447;28;20271;-83
2023/07/29 00:13:22;;;;;;;6.63;6.30;;;17.50;83.60;;;;;;6222328;28;20245;-84
2023/07/29 00:16:27;;;;;;;7.17;6.87;;;17.50;83.70;;;;;;6230281;28;20246;-83
2023/07/29 00:19:33;;;;;;;7.00;6.70;;;17.50;83.70;;;;;;6234327;28;20234;-83
2023/07/29 00:22:36;;;;;;;6.93;6.63;;;17.50;83.80;;;;;;6222518;28;20231;-83
2023/07/29 00:25:39;;;;;;;7.10;6.80;;;17.40;83.80;;;;;;6223910;28;20246;-83
2023/07/29 00:28:42;;;;;;;7.30;7.00;;;17.40;83.90;;;;;;6223846;28;20623;-82
2023/07/29 00:31:47;;;;;;;6.77;6.47;;;17.40;83.80;;;;;;6222244;28;20634;-83
2023/07/29 00:34:50;;;;;;;7.23;6.93;;;17.30;84.00;;;;;;6235928;28;20230;-83
2023/07/29 00:37:54;;;;;;;8.53;7.70;;;17.30;83.90;;;;;;6231761;28;20226;-82
2023/07/29 00:40:58;;;;;;;8.60;8.10;;;17.20;83.90;;;;;;6229995;28;20235;-82
2023/07/29 00:44:02;;;;;;;8.00;7.60;;;17.20;84.00;;;;;;6212174;28;20231;-84
2023/07/29 00:47:07;;;;;;;11.60;10.67;;;17.20;84.10;;;;;;6233077;28;20384;-84
2023/07/29 00:50:13;;;;;;;11.53;10.73;;;17.20;84.30;;;;;;6244455;28;20258;-83
2023/07/29 00:53:16;;;;;;;9.00;8.40;;;17.20;84.40;;;;;;6232939;28;20321;-83
2023/07/29 00:56:19;;;;;;;8.50;8.00;;;17.20;84.40;;;;;;6234721;28;20288;-84
2023/07/29 00:59:23;;;;;;;7.47;7.07;;;17.20;84.40;;;;;;6245772;28;20312;-84
2023/07/29 01:02:29;;;;;;;7.93;7.50;;;17.20;84.40;;;;;;6225122;28;20243;-80
2023/07/29 01:05:39;;;;;;;7.40;7.10;;;17.20;84.40;;;;;;6229946;28;20234;-85
2023/07/29 01:08:56;;;;;;;8.47;8.03;;;17.10;84.40;;;;;;6235416;28;20815;-82
2023/07/29 01:12:09;;;;;;;7.27;6.97;;;17.10;84.40;;;;;;6234971;28;20242;-83
2023/07/29 01:15:17;;;;;;;7.03;6.63;;;17.10;84.40;;;;;;6230856;28;20255;-82
2023/07/29 01:18:27;;;;;;;7.90;7.60;;;17.00;84.40;;;;;;6235249;28;20273;-81
2023/07/29 01:21:30;;;;;;;7.93;7.47;;;17.00;84.40;;;;;;6210732;28;20322;-85
2023/07/29 01:24:37;;;;;;;7.23;6.90;;;17.00;84.40;;;;;;6226696;28;20245;-84
2023/07/29 01:27:41;;;;;;;7.40;7.10;;;17.00;84.40;;;;;;6228790;28;20935;-84
2023/07/29 01:30:46;;;;;;;8.13;7.73;;;16.90;84.30;;;;;;6221457;28;20286;-82
2023/07/29 01:34:04;;;;;;;8.07;7.67;;;16.90;84.40;;;;;;6213711;28;20251;-84
2023/07/29 01:37:14;;;;;;;7.77;7.37;;;16.90;84.40;;;;;;6233214;28;20219;-79
2023/07/29 01:40:19;;;;;;;7.80;7.40;;;16.80;84.40;;;;;;6236858;28;20774;-80
2023/07/29 01:43:23;;;;;;;7.40;7.00;;;16.80;84.40;;;;;;6208935;28;20251;-83
2023/07/29 01:46:26;;;;;;;7.97;7.57;;;16.80;84.40;;;;;;6225449;28;20270;-81
2023/07/29 01:49:30;;;;;;;8.57;8.17;;;16.70;84.40;;;;;;6231060;28;20741;-83
2023/07/29 01:52:33;;;;;;;9.17;8.57;;;16.70;84.40;;;;;;6239574;28;20241;-83
2023/07/29 01:55:37;;;;;;;8.47;7.97;;;16.70;84.40;;;;;;6229457;28;20234;-83
2023/07/29 01:58:40;;;;;;;8.83;8.27;;;16.70;84.40;;;;;;6241878;28;20235;-83
2023/07/29 02:01:46;;;;;;;8.20;7.80;;;16.70;84.40;;;;;;6231111;28;20864;-87
2023/07/29 02:04:51;;;;;;;8.17;7.77;;;16.60;84.40;;;;;;6234289;28;20322;-84
2023/07/29 02:07:54;;;;;;;8.40;8.00;;;16.60;84.50;;;;;;6225717;28;20247;-81
2023/07/29 02:10:59;;;;;;;8.03;7.63;;;16.60;84.50;;;;;;6219815;28;20438;-83
2023/07/29 02:14:03;;;;;;;8.97;8.37;;;16.60;84.60;;;;;;6233964;28;20235;-82
2023/07/29 02:17:06;;;;;;;9.43;8.83;;;16.50;84.50;;;;;;6224848;28;20234;-83
2023/07/29 02:20:10;;;;;;;9.83;9.07;;;16.50;84.50;;;;;;6233838;28;20604;-83
2023/07/29 02:23:13;;;;;;;9.13;8.63;;;16.50;84.50;;;;;;6231845;28;20237;-85
2023/07/29 02:26:18;;;;;;;8.90;8.37;;;16.50;84.50;;;;;;6233615;28;20242;-84
2023/07/29 02:29:22;;;;;;;9.67;9.07;;;16.50;84.60;;;;;;6225197;28;20728;-83
2023/07/29 02:32:26;;;;;;;9.93;9.33;;;16.50;84.70;;;;;;6230426;28;20246;-82
2023/07/29 02:35:29;;;;;;;10.10;9.40;;;16.50;84.70;;;;;;6233093;28;20238;-84
2023/07/29 02:38:32;;;;;;;10.07;9.37;;;16.50;84.70;;;;;;6217221;28;20329;-86
2023/07/29 02:41:36;;;;;;;9.57;9.07;;;16.50;84.70;;;;;;6227403;28;20297;-85
2023/07/29 02:44:41;;;;;;;9.70;9.10;;;16.50;84.70;;;;;;6224329;28;20778;-81
2023/07/29 02:47:47;;;;;;;9.23;8.63;;;16.40;84.70;;;;;;6244971;28;20235;-81
2023/07/29 02:50:50;;;;;;;9.80;9.20;;;16.40;84.70;;;;;;6223232;28;20234;-84
2023/07/29 02:53:53;;;;;;;9.33;8.83;;;16.40;84.80;;;;;;6221783;28;20306;-84
2023/07/29 02:56:58;;;;;;;8.97;8.47;;;16.40;84.80;;;;;;6225340;28;20235;-85
2023/07/29 03:00:02;;;;;;;8.70;8.20;;;16.40;84.80;;;;;;6227811;28;20253;-84
2023/07/29 03:03:05;;;;;;;7.70;7.30;;;16.40;84.80;;;;;;6222919;28;20246;-83
2023/07/29 03:06:12;;;;;;;9.23;8.53;;;16.40;84.80;;;;;;6215261;28;20238;-85
2023/07/29 03:09:15;;;;;;;8.77;8.27;;;16.40;84.80;;;;;;6225230;28;20270;-85
2023/07/29 03:12:21;;;;;;;9.20;8.60;;;16.40;84.90;;;;;;6218134;28;20701;-81
2023/07/29 03:15:25;;;;;;;8.97;8.37;;;16.40;84.90;;;;;;6214425;28;20303;-82
2023/07/29 03:18:28;;;;;;;8.63;8.10;;;16.40;84.90;;;;;;6215974;28;20330;-83
2023/07/29 03:21:31;;;;;;;8.60;8.10;;;16.40;84.90;;;;;;6223806;28;20653;-83
2023/07/29 03:24:34;;;;;;;9.40;8.90;;;16.40;84.90;;;;;;6224012;28;20251;-84
2023/07/29 03:27:39;;;;;;;8.30;7.90;;;16.40;85.00;;;;;;6217999;28;20986;-84
2023/07/29 03:30:42;;;;;;;9.17;8.67;;;16.40;85.00;;;;;;6234021;28;20710;-80
2023/07/29 03:33:46;;;;;;;8.07;7.67;;;16.40;85.00;;;;;;6221245;28;20246;-81
2023/07/29 03:36:51;;;;;;;8.23;7.83;;;16.40;85.00;;;;;;6228180;28;20234;-82
2023/07/29 03:39:54;;;;;;;8.73;8.13;;;16.40;85.00;;;;;;6223822;28;20388;-81
2023/07/29 03:42:59;;;;;;;8.97;8.47;;;16.40;85.00;;;;;;6222281;28;20239;-79
2023/07/29 03:46:02;;;;;;;9.57;9.07;;;16.40;85.00;;;;;;6225794;28;20313;-84
2023/07/29 03:49:05;;;;;;;10.50;9.80;;;16.40;85.00;;;;;;6227218;28;20817;-82
2023/07/29 03:52:09;;;;;;;8.97;8.47;;;16.40;85.00;;;;;;6212970;28;20305;-80
2023/07/29 03:55:12;;;;;;;11.60;10.70;;;16.40;85.00;;;;;;6219106;28;20247;-82
2023/07/29 03:58:16;;;;;;;10.37;9.67;;;16.40;85.10;;;;;;6225107;28;20243;-80
2023/07/29 04:01:19;;;;;;;9.93;9.13;;;16.40;85.10;;;;;;6213524;28;20798;-81
2023/07/29 04:04:23;;;;;;;10.40;9.80;;;16.40;85.20;;;;;;6208060;28;20274;-82
2023/07/29 04:07:26;;;;;;;9.33;8.83;;;16.40;85.30;;;;;;6232477;28;20765;-79
2023/07/29 04:10:31;;;;;;;10.67;9.77;;;16.50;85.30;;;;;;6229645;28;20231;-81
2023/07/29 04:13:37;;;;;;;10.07;9.47;;;16.50;85.20;;;;;;6229751;28;20239;-80
2023/07/29 04:16:40;;;;;;;9.30;8.60;;;16.60;85.20;;;;;;6218740;28;20948;-81
2023/07/29 04:19:43;;;;;;;9.40;8.90;;;16.60;85.20;;;;;;6221150;28;20239;-80
2023/07/29 04:22:46;;;;;;;10.07;9.43;;;16.60;85.10;;;;;;6216445;28;20626;-79
2023/07/29 04:25:51;;;;;;;10.10;9.30;;;16.70;85.10;;;;;;6217135;28;20235;-81
2023/07/29 04:28:58;;;;;;;9.97;9.33;;;16.70;85.10;;;;;;6216184;28;20232;-79
2023/07/29 04:32:01;;;;;;;12.67;11.77;;;16.80;85.30;;;;;;6208163;28;20782;-81
2023/07/29 04:35:05;;;;;;;9.30;8.80;;;16.90;85.30;;;;;;6214281;28;20231;-82
2023/07/29 04:38:08;;;;;;;10.47;9.83;;;17.00;85.30;;;;;;6219864;28;20245;-82
2023/07/29 04:41:11;;;;;;;9.93;9.33;;;17.10;85.10;;;;;;6227250;28;21027;-80
2023/07/29 04:44:16;;;;;;;10.10;9.50;;;17.20;85.00;;;;;;6216505;28;20227;-82
2023/07/29 04:47:19;;;;;;;10.20;9.60;;;17.20;84.90;;;;;;6223555;28;20324;-82
2023/07/29 04:50:22;;;;;;;10.17;9.47;;;17.40;84.90;;;;;;6212444;28;20238;-82
2023/07/29 04:53:25;;;;;;;9.77;9.17;;;17.40;84.70;;;;;;6221663;28;20234;-79
2023/07/29 04:56:28;;;;;;;8.10;7.70;;;17.50;84.60;;;;;;6224039;28;20231;-80
2023/07/29 04:59:33;;;;;;;10.27;9.63;;;17.50;84.70;;;;;;6223432;28;20242;-79
2023/07/29 05:02:36;;;;;;;11.87;11.00;;;17.70;84.70;;;;;;6223194;28;20404;-79
2023/07/29 05:05:39;;;;;;;8.63;8.20;;;17.80;84.40;;;;;;6220760;28;20228;-81
2023/07/29 05:08:42;;;;;;;10.97;10.17;;;18.00;84.50;;;;;;6229485;28;20238;-79
2023/07/29 05:11:45;;;;;;;11.00;10.03;;;18.20;84.20;;;;;;6230961;28;20305;-80
2023/07/29 05:14:50;;;;;;;8.90;8.43;;;18.30;82.30;;;;;;6220693;28;20235;-79
2023/07/29 05:17:53;;;;;;;10.40;9.53;;;18.40;82.80;;;;;;6219573;28;20273;-81
2023/07/29 05:20:56;;;;;;;9.47;8.87;;;18.40;81.20;;;;;;6220098;28;20874;-80
2023/07/29 05:24:02;;;;;;;9.10;8.50;;;18.40;81.10;;;;;;6222335;28;20262;-79
2023/07/29 05:27:08;;;;;;;9.20;8.50;;;18.50;81.10;;;;;;6221517;28;20756;-81
2023/07/29 05:30:12;;;;;;;9.70;9.10;;;18.70;81.40;;;;;;6227550;28;20442;-81
2023/07/29 05:33:15;;;;;;;8.70;8.30;;;18.90;79.90;;;;;;6223055;28;20744;-82
2023/07/29 05:36:19;;;;;;;8.70;8.30;;;19.10;79.70;;;;;;6231104;28;20296;-80
2023/07/29 05:39:24;;;;;;;8.30;7.90;;;19.30;78.90;;;;;;6234134;28;20238;-80
2023/07/29 05:42:27;;;;;;;7.87;7.40;;;19.50;78.60;;;;;;6226523;28;20665;-81
2023/07/29 05:45:32;;;;;;;8.43;7.93;;;19.60;78.30;;;;;;6224702;28;20227;-81
2023/07/29 05:48:35;;;;;;;9.13;8.30;;;19.50;78.00;;;;;;6223683;28;20594;-81
2023/07/29 05:51:38;;;;;;;9.27;8.60;;;19.50;77.20;;;;;;6230568;28;20230;-81
2023/07/29 05:54:42;;;;;;;9.07;8.40;;;19.20;78.20;;;;;;6240592;28;20387;-77
2023/07/29 05:57:45;;;;;;;9.33;8.30;;;19.00;79.20;;;;;;6248124;28;20231;-76
2023/07/29 06:00:50;;;;;;;8.33;7.83;;;19.20;78.70;;;;;;6248050;28;20250;-75
2023/07/29 06:03:53;;;;;;;7.33;6.93;;;19.40;78.70;;;;;;6258588;28;20298;-80
2023/07/29 06:06:56;;;;;;;9.07;8.67;;;19.50;78.60;;;;;;6248488;28;20247;-81
2023/07/29 06:09:59;;;;;;;8.10;7.30;;;19.50;77.70;;;;;;6261055;28;20226;-79
2023/07/29 06:13:02;;;;;;;8.00;7.50;;;19.90;77.90;;;;;;6249627;28;20299;-79
2023/07/29 06:16:07;;;;;;;6.70;6.50;;;20.30;77.30;;;;;;6244173;28;20243;-78
2023/07/29 06:19:10;;;;;;;7.40;7.00;;;20.80;76.00;;;;;;6244804;28;20231;-81
2023/07/29 06:22:13;;;;;;;6.73;6.40;;;20.90;74.80;;;;;;6262184;28;20230;-78
2023/07/29 06:25:16;;;;;;;6.27;6.03;;;21.10;74.20;;;;;;6256273;28;20257;-80
2023/07/29 06:28:19;;;;;;;6.97;6.47;;;21.40;73.90;;;;;;6259596;28;20222;-79
2023/07/29 06:31:23;;;;;;;6.30;6.10;;;21.70;73.30;;;;;;6258174;28;20242;-77
2023/07/29 06:34:27;;;;;;;7.93;7.53;;;21.90;72.20;;;;;;6244926;28;20234;-80
2023/07/29 06:37:30;;;;;;;7.20;6.87;;;21.80;72.20;;;;;;6237991;28;20231;-80
2023/07/29 06:40:33;;;;;;;6.77;6.37;;;21.90;71.10;;;;;;6247836;28;20219;-81
2023/07/29 06:43:36;;;;;;;5.33;5.20;;;21.90;72.00;;;;;;6251846;28;20300;-80
2023/07/29 06:46:40;;;;;;;6.53;6.33;;;22.20;71.90;;;;;;6260695;28;20239;-80
2023/07/29 06:49:43;;;;;;;6.73;6.23;;;22.10;71.50;;;;;;6247620;28;20251;-77
2023/07/29 06:52:47;;;;;;;6.53;6.07;;;22.30;71.20;;;;;;6256159;28;20250;-78
2023/07/29 06:55:50;;;;;;;7.83;7.43;;;22.30;70.90;;;;;;6234265;28;20400;-80
2023/07/29 06:58:53;;;;;;;6.33;6.10;;;22.40;70.10;;;;;;6229914;28;20242;-82
2023/07/29 07:01:57;;;;;;;5.63;5.50;;;22.10;71.20;;;;;;6220565;28;20282;-82
2023/07/29 07:05:00;;;;;;;6.67;6.37;;;22.20;70.80;;;;;;6216195;28;20243;-82
2023/07/29 07:08:04;;;;;;;7.10;6.70;;;22.20;71.20;;;;;;6230715;28;20357;-81
2023/07/29 07:11:07;;;;;;;6.30;6.00;;;22.20;70.50;;;;;;6224589;28;20855;-81
2023/07/29 07:14:13;;;;;;;6.30;6.00;;;22.20;70.90;;;;;;6234109;28;20920;-83
2023/07/29 07:17:18;;;;;;;6.57;6.27;;;22.00;71.30;;;;;;6220293;28;20262;-81
2023/07/29 07:20:21;;;;;;;6.43;6.13;;;21.50;72.30;;;;;;6223866;28;20373;-80
2023/07/29 07:23:24;;;;;;;6.13;6.03;;;21.50;73.30;;;;;;6226721;28;20234;-81
2023/07/29 07:26:27;;;;;;;6.17;5.97;;;21.70;72.80;;;;;;6224760;28;20250;-82
2023/07/29 07:29:30;;;;;;;6.97;6.57;;;21.90;72.50;;;;;;6222797;28;20333;-80
2023/07/29 07:32:35;;;;;;;7.03;6.53;;;21.90;71.90;;;;;;6231611;28;20241;-81
2023/07/29 07:35:38;;;;;;;7.13;6.73;;;21.80;72.20;;;;;;6225550;28;20747;-82
2023/07/29 07:38:41;;;;;;;6.97;6.67;;;21.90;71.90;;;;;;6230801;28;20230;-81
2023/07/29 07:41:44;;;;;;;6.63;6.30;;;21.50;72.50;;;;;;6230401;28;20242;-82
2023/07/29 07:44:47;;;;;;;7.30;6.90;;;21.50;73.60;;;;;;6227728;28;20944;-83
2023/07/29 07:47:52;;;;;;;6.47;6.17;;;21.80;72.40;;;;;;6226089;28;20337;-82
2023/07/29 07:50:56;;;;;;;7.47;7.13;;;21.90;72.00;;;;;;6233874;28;20795;-81
2023/07/29 07:53:59;;;;;;;7.13;6.63;;;21.90;72.00;;;;;;6220572;28;20257;-81
2023/07/29 07:57:02;;;;;;;7.33;7.07;;;21.90;72.20;;;;;;6234989;28;20239;-82
2023/07/29 08:00:06;;;;;;;5.80;5.70;;;21.90;72.20;;;;;;6230782;28;20796;-83
2023/07/29 08:03:11;;;;;;;6.87;6.47;;;22.30;71.80;;;;;;6228593;28;20231;-82
2023/07/29 08:06:14;;;;;;;8.60;8.00;;;22.40;70.60;;;;;;6225359;28;20227;-81
2023/07/29 08:09:17;;;;;;;6.70;6.30;;;22.30;70.90;;;;;;6229378;28;20242;-77
2023/07/29 08:12:21;;;;;;;6.53;6.33;;;22.50;70.30;;;;;;6214862;28;20303;-83
2023/07/29 08:15:24;;;;;;;6.13;5.93;;;22.50;70.60;;;;;;6228849;28;20251;-81
2023/07/29 08:18:29;;;;;;;6.80;6.53;;;22.50;69.60;;;;;;6228354;28;20321;-81
2023/07/29 08:21:32;;;;;;;5.67;5.47;;;22.50;70.70;;;;;;6219599;28;20246;-82
2023/07/29 08:24:35;;;;;;;6.63;6.23;;;22.90;70.70;;;;;;6225554;28;20234;-81
2023/07/29 08:27:38;;;;;;;5.40;5.30;;;23.20;68.60;;;;;;6226707;28;20329;-78
2023/07/29 08:30:41;;;;;;;5.40;5.20;;;23.10;69.10;;;;;;6223030;28;20238;-80
2023/07/29 08:33:46;;;;;;;5.07;4.87;;;23.30;68.80;;;;;;6220687;28;20270;-80
2023/07/29 08:36:49;;;;;;;5.60;5.37;;;23.30;68.90;;;;;;6205277;28;20339;-81
2023/07/29 08:39:53;;;;;;;5.37;5.17;;;23.20;68.80;;;;;;6228422;28;20889;-81
2023/07/29 08:42:59;;;;;;;5.53;5.33;;;23.10;68.00;;;;;;6224252;28;20732;-80
2023/07/29 08:46:03;;;;;;;5.77;5.60;;;23.00;69.00;;;;;;6223815;28;20253;-80
2023/07/29 08:49:08;;;;;;;4.67;4.57;;;23.30;68.90;;;;;;6216847;28;20687;-82
2023/07/29 08:52:13;;;;;;;5.30;5.10;;;23.40;68.20;;;;;;6234847;28;20253;-79
2023/07/29 08:55:16;;;;;;;4.60;4.50;;;23.40;67.60;;;;;;6221874;28;20242;-82
2023/07/29 08:58:21;;;;;;;5.23;5.03;;;23.40;67.90;;;;;;6221194;28;20328;-80
2023/07/29 09:01:24;;;;;;;5.13;4.90;;;23.40;68.00;;;;;;6220439;28;20246;-81
2023/07/29 09:04:28;;;;;;;7.60;7.20;;;23.60;67.50;;;;;;6227986;28;20227;-83
2023/07/29 09:07:34;;;;;;;5.20;5.10;;;23.70;67.60;;;;;;6234282;28;20316;-81
2023/07/29 09:10:38;;;;;;;5.00;4.70;;;23.90;66.80;;;;;;6225568;28;20243;-80
2023/07/29 09:13:41;;;;;;;5.17;4.97;;;24.20;66.60;;;;;;6218846;28;20235;-79
2023/07/29 09:16:45;;;;;;;4.57;4.33;;;24.00;66.10;;;;;;6223199;28;20249;-81
2023/07/29 09:19:53;;;;;;;5.47;5.30;;;24.20;65.90;;;;;;6225055;28;20247;-81
2023/07/29 09:23:00;;;;;;;6.63;6.30;;;24.40;66.20;;;;;;6221470;28;20234;-82
2023/07/29 09:26:04;;;;;;;3.97;3.93;;;24.30;65.60;;;;;;6223456;28;20227;-80
2023/07/29 09:29:07;;;;;;;3.83;3.73;;;24.10;65.90;;;;;;6224296;28;20830;-79
2023/07/29 09:32:21;;;;;;;4.37;4.27;;;24.40;66.40;;;;;;6223045;28;20338;-81
2023/07/29 09:35:28;;;;;;;4.40;4.30;;;24.40;66.10;;;;;;6219494;28;20267;-81
2023/07/29 09:38:31;;;;;;;4.10;4.00;;;24.40;65.50;;;;;;6232173;28;20241;-82
2023/07/29 09:41:34;;;;;;;4.40;4.30;;;24.60;66.10;;;;;;6225053;28;20304;-81
2023/07/29 09:44:37;;;;;;;4.13;4.03;;;24.60;65.30;;;;;;6232270;28;20242;-81
2023/07/29 09:47:40;;;;;;;3.87;3.77;;;24.80;65.30;;;;;;6226734;28;20239;-79
2023/07/29 09:50:48;;;;;;;4.20;4.10;;;25.00;64.80;;;;;;6219822;28;20299;-81
2023/07/29 09:53:52;;;;;;;3.47;3.37;;;25.00;64.80;;;;;;6228915;28;20313;-82
2023/07/29 09:56:55;;;;;;;4.30;4.10;;;25.00;64.70;;;;;;6232173;28;20243;-80
2023/07/29 09:59:58;;;;;;;4.63;4.43;;;25.00;64.70;;;;;;6230385;28;20232;-80
2023/07/29 10:03:02;;;;;;;3.80;3.70;;;24.90;64.60;;;;;;6228580;28;20243;-80
2023/07/29 10:06:07;;;;;;;4.03;3.97;;;25.00;65.20;;;;;;6226793;28;20977;-79
2023/07/29 10:09:12;;;;;;;3.93;3.83;;;25.00;65.10;;;;;;6224200;28;20253;-81
2023/07/29 10:12:15;;;;;;;3.53;3.53;;;25.10;65.10;;;;;;6224384;28;20241;-80
2023/07/29 10:15:22;;;;;;;4.50;4.33;;;25.30;64.70;;;;;;6230262;28;20811;-78
2023/07/29 10:18:27;;;;;;;3.30;3.20;;;25.50;64.30;;;;;;6225446;28;20437;-81
2023/07/29 10:21:35;;;;;;;3.73;3.50;;;25.50;64.40;;;;;;6236410;28;20288;-81
2023/07/29 10:24:42;;;;;;;3.60;3.40;;;25.30;63.90;;;;;;6213492;28;20240;-81
2023/07/29 10:27:50;;;;;;;4.07;3.87;;;25.20;64.00;;;;;;6227448;28;20328;-81
2023/07/29 10:30:54;;;;;;;2.97;2.90;;;25.30;64.20;;;;;;6219273;28;20247;-78
2023/07/29 10:33:58;;;;;;;3.37;3.30;;;25.00;64.40;;;;;;6224445;28;20871;-80
2023/07/29 10:37:03;;;;;;;3.90;3.80;;;24.90;65.30;;;;;;6230865;28;20257;-79
2023/07/29 10:40:10;;;;;;;3.83;3.73;;;24.80;65.20;;;;;;6226360;28;20796;-79
2023/07/29 10:43:24;;;;;;;3.80;3.80;;;25.00;64.70;;;;;;6220546;28;20664;-79
2023/07/29 10:46:27;;;;;;;4.40;4.20;;;24.70;64.30;;;;;;6222179;28;20720;-80
2023/07/29 10:49:31;;;;;;;3.73;3.63;;;24.80;63.90;;;;;;6227434;28;20231;-80
2023/07/29 10:52:42;;;;;;;3.67;3.67;;;24.70;64.20;;;;;;6224398;28;20265;-81
2023/07/29 10:55:45;;;;;;;4.03;3.90;;;24.80;64.00;;;;;;6233692;28;24883;-80
2023/07/29 10:58:48;;;;;;;2.93;2.93;;;25.00;64.30;;;;;;6231977;28;20245;-79
2023/07/29 11:01:54;;;;;;;3.57;3.47;;;25.00;63.70;;;;;;6232270;28;20242;-81
2023/07/29 11:04:57;;;;;;;3.67;3.57;;;24.70;64.20;;;;;;6233029;28;20297;-81
2023/07/29 11:08:17;;;;;;;3.13;3.13;;;24.20;63.80;;;;;;6232142;28;20274;-80
2023/07/29 11:11:20;;;;;;;3.53;3.43;;;23.90;64.00;;;;;;6222672;28;20314;-79
2023/07/29 11:14:25;;;;;;;3.97;3.77;;;23.60;65.20;;;;;;6226203;28;20305;-78
2023/07/29 11:17:29;;;;;;;4.20;3.77;;;23.60;65.10;;;;;;6225980;28;20388;-79
2023/07/29 11:20:34;;;;;;;3.03;2.53;;;23.40;65.00;;;;;;6217230;28;20570;-80
2023/07/29 11:23:40;;;;;;;2.33;2.13;;;22.80;68.50;;;;;;6226529;28;20862;-81
2023/07/29 11:26:47;;;;;;;2.20;1.97;;;21.50;71.70;;;;;;6217553;28;20774;-79
2023/07/29 11:29:51;;;;;;;2.80;2.60;;;20.90;74.30;;;;;;6217250;28;20641;-82
2023/07/29 11:32:54;;;;;;;2.73;2.60;;;20.60;75.50;;;;;;6221342;28;20274;-81
2023/07/29 11:35:58;;;;;;;2.23;2.13;;;20.30;76.70;;;;;;6231864;28;20238;-82
2023/07/29 11:39:11;;;;;;;2.00;2.00;;;20.30;77.00;;;;;;6223240;28;20266;-82
2023/07/29 11:42:15;;;;;;;3.70;2.80;;;20.30;77.20;;;;;;6225235;28;20227;-81
2023/07/29 11:45:19;;;;;;;2.80;2.67;;;20.40;77.30;;;;;;6219700;28;20693;-82
2023/07/29 11:48:29;;;;;;;2.90;2.70;;;20.50;77.50;;;;;;6225650;28;20247;-80
2023/07/29 11:51:33;;;;;;;2.73;2.53;;;20.50;77.70;;;;;;6216601;28;20275;-79
2023/07/29 11:54:38;;;;;;;2.83;2.73;;;20.60;77.80;;;;;;6227806;28;20226;-80
2023/07/29 11:57:43;;;;;;;2.80;2.70;;;20.70;77.60;;;;;;6221462;28;20230;-80
2023/07/29 12:00:47;;;;;;;3.03;2.93;;;20.80;77.70;;;;;;6229226;28;20247;-81
2023/07/29 12:03:51;;;;;;;3.40;3.20;;;20.90;77.60;;;;;;6213709;28;20876;-82
2023/07/29 12:06:54;;;;;;;3.10;3.00;;;21.00;77.70;;;;;;6223243;28;20329;-81
2023/07/29 12:09:59;;;;;;;3.23;3.13;;;21.10;77.70;;;;;;6221792;28;20261;-79
2023/07/29 12:13:03;;;;;;;3.00;2.90;;;21.20;78.00;;;;;;6221234;28;20231;-82
2023/07/29 12:16:08;;;;;;;3.53;3.43;;;21.40;77.80;;;;;;6222605;28;20265;-83
2023/07/29 12:19:13;;;;;;;3.53;3.43;;;21.50;77.50;;;;;;6227404;28;20235;-82
2023/07/29 12:22:19;;;;;;;3.90;3.60;;;21.50;77.00;;;;;;6219942;28;20369;-83
2023/07/29 12:25:24;;;;;;;3.70;3.50;;;21.50;76.20;;;;;;6220756;28;20238;-81
2023/07/29 12:28:27;;;;;;;3.03;2.93;;;21.40;76.80;;;;;;6230361;28;20313;-82
2023/07/29 12:31:33;;;;;;;3.30;3.20;;;21.30;76.90;;;;;;6229263;28;20715;-82
2023/07/29 12:34:39;;;;;;;3.10;2.93;;;21.40;76.90;;;;;;6223087;28;20419;-81
2023/07/29 12:37:43;;;;;;;3.30;3.20;;;21.50;76.60;;;;;;6223478;28;20239;-82
2023/07/29 12:40:47;;;;;;;3.57;2.70;;;21.60;76.50;;;;;;6231022;28;20313;-81
2023/07/29 12:43:50;;;;;;;3.13;3.03;;;21.60;76.30;;;;;;6223630;28;20348;-82
2023/07/29 12:46:53;;;;;;;2.97;2.77;;;21.60;76.50;;;;;;6227571;28;20323;-81
2023/07/29 12:49:57;;;;;;;3.43;3.23;;;21.70;76.90;;;;;;6221461;28;20239;-82
2023/07/29 12:53:00;;;;;;;2.97;2.87;;;21.70;76.60;;;;;;6227588;28;20377;-81
2023/07/29 12:56:05;;;;;;;3.17;3.07;;;22.10;76.00;;;;;;6227586;28;20257;-82
2023/07/29 12:59:08;;;;;;;2.67;2.67;;;22.50;75.30;;;;;;6222089;28;20326;-82
2023/07/29 13:02:11;;;;;;;3.80;3.70;;;22.60;74.00;;;;;;6227089;28;20226;-82
2023/07/29 13:05:14;;;;;;;4.00;3.90;;;22.70;73.50;;;;;;6230158;28;20231;-80
2023/07/29 13:08:17;;;;;;;3.90;3.80;;;23.10;72.70;;;;;;6233168;28;20301;-82
2023/07/29 13:11:22;;;;;;;4.63;4.43;;;23.10;73.20;;;;;;6228283;28;20269;-80
2023/07/29 13:14:26;;;;;;;5.00;4.90;;;23.20;71.20;;;;;;6227254;28;20242;-80
2023/07/29 13:17:29;;;;;;;4.17;3.97;;;22.80;72.20;;;;;;6224086;28;20250;-82
2023/07/29 13:20:33;;;;;;;6.70;6.30;;;22.40;73.00;;;;;;6226438;28;20235;-82
2023/07/29 13:23:36;;;;;;;4.00;3.80;;;22.30;74.00;;;;;;6222276;28;20844;-80
2023/07/29 13:26:42;;;;;;;4.30;4.00;;;22.30;73.60;;;;;;6229258;28;20237;-81
2023/07/29 13:29:45;;;;;;;4.60;3.83;;;22.50;73.80;;;;;;6222826;28;20235;-82
2023/07/29 13:32:51;;;;;;;4.27;4.03;;;22.70;73.20;;;;;;6219830;28;20265;-80
2023/07/29 13:35:54;;;;;;;6.97;6.43;;;22.80;72.30;;;;;;6232112;28;20235;-82
2023/07/29 13:38:57;;;;;;;7.03;6.50;;;22.90;72.00;;;;;;6227519;28;20242;-82
2023/07/29 13:42:02;;;;;;;4.40;4.17;;;23.00;72.70;;;;;;6229542;28;20250;-81
2023/07/29 13:45:06;;;;;;;5.33;5.13;;;23.50;71.70;;;;;;6233163;28;20231;-80
2023/07/29 13:48:10;;;;;;;3.50;3.50;;;23.90;69.90;;;;;;6220273;28;20256;-81
2023/07/29 13:51:13;;;;;;;3.00;3.00;;;24.20;68.70;;;;;;6241000;28;20734;-81
2023/07/29 13:54:16;;;;;;;3.37;3.07;;;24.20;66.30;;;;;;6234813;28;20239;-82
2023/07/29 13:57:20;;;;;;;3.40;3.37;;;24.00;68.40;;;;;;6236845;28;20326;-82
2023/07/29 14:00:24;;;;;;;3.53;3.33;;;24.20;68.20;;;;;;6233542;28;20324;-79
2023/07/29 14:03:27;;;;;;;3.33;3.13;;;24.60;67.90;;;;;;6234993;28;20258;-81
2023/07/29 14:06:30;;;;;;;3.57;3.47;;;24.80;67.10;;;;;;6222577;28;20320;-80
2023/07/29 14:09:47;;;;;;;2.23;2.23;;;24.70;66.30;;;;;;6224449;28;20408;-80
2023/07/29 14:12:52;;;;;;;2.57;2.47;;;24.50;65.70;;;;;;6231981;28;20861;-78
2023/07/29 14:15:55;;;;;;;3.10;3.10;;;24.60;66.20;;;;;;6237057;28;20324;-78
2023/07/29 14:18:58;;;;;;;3.07;2.97;;;24.80;65.60;;;;;;6215725;28;20322;-81
2023/07/29 14:22:01;;;;;;;2.47;2.47;;;25.00;64.90;;;;;;6222562;28;20243;-80
2023/07/29 14:25:06;;;;;;;2.70;2.70;;;25.00;65.20;;;;;;6228867;28;20747;-79
2023/07/29 14:28:10;;;;;;;2.83;2.63;;;25.00;65.00;;;;;;6228758;28;20250;-83
2023/07/29 14:31:13;;;;;;;2.50;2.50;;;24.80;65.30;;;;;;6222417;28;20245;-80
2023/07/29 14:34:17;;;;;;;2.60;2.60;;;24.40;65.50;;;;;;6225664;28;20318;-82
2023/07/29 14:37:20;;;;;;;2.77;2.67;;;24.40;65.80;;;;;;6225985;28;20235;-80
2023/07/29 14:40:23;;;;;;;3.10;3.10;;;24.40;66.00;;;;;;6228954;28;20317;-81
2023/07/29 14:43:28;;;;;;;3.10;2.90;;;24.40;66.10;;;;;;6227060;28;20243;-81
2023/07/29 14:46:31;;;;;;;2.97;2.87;;;23.80;66.70;;;;;;6223671;28;20332;-81
2023/07/29 14:49:34;;;;;;;2.73;2.53;;;23.70;67.60;;;;;;6227113;28;20239;-83
2023/07/29 14:52:37;;;;;;;2.30;2.30;;;23.50;68.40;;;;;;6228375;28;20247;-82
2023/07/29 14:55:41;;;;;;;2.73;2.73;;;23.40;68.10;;;;;;6221251;28;20254;-81
2023/07/29 14:58:45;;;;;;;2.60;2.60;;;23.50;68.00;;;;;;6227805;28;20312;-79
2023/07/29 15:01:48;;;;;;;2.60;2.60;;;23.50;67.90;;;;;;6213886;28;20320;-82
2023/07/29 15:04:52;;;;;;;2.53;2.53;;;23.40;68.50;;;;;;6229833;28;20258;-80
2023/07/29 15:07:55;;;;;;;2.87;2.77;;;23.20;68.90;;;;;;6224587;28;20252;-82
2023/07/29 15:10:58;;;;;;;3.10;3.10;;;23.00;68.20;;;;;;6221170;28;20304;-83
2023/07/29 15:14:03;;;;;;;2.63;2.63;;;22.90;68.80;;;;;;6229700;28;20239;-80
2023/07/29 15:17:07;;;;;;;2.90;2.80;;;22.90;68.40;;;;;;6213825;28;20235;-80
2023/07/29 15:20:11;;;;;;;2.60;2.50;;;22.90;68.20;;;;;;6229678;28;20230;-82
2023/07/29 15:23:14;;;;;;;3.17;3.13;;;23.00;67.70;;;;;;6225446;28;20250;-77
2023/07/29 15:26:17;;;;;;;2.93;2.73;;;23.00;67.40;;;;;;6219618;28;20238;-82
2023/07/29 15:29:22;;;;;;;3.23;3.03;;;22.90;67.50;;;;;;6221449;28;20393;-81
2023/07/29 15:32:25;;;;;;;2.60;2.60;;;22.70;67.90;;;;;;6230184;28;20305;-81
2023/07/29 15:35:28;;;;;;;3.13;3.00;;;22.70;68.30;;;;;;6225974;28;20223;-80
2023/07/29 15:38:32;;;;;;;3.13;3.03;;;22.60;68.50;;;;;;6227080;28;20744;-80
2023/07/29 15:41:35;;;;;;;3.10;3.00;;;22.20;66.30;;;;;;6226532;28;20619;-81
2023/07/29 15:44:40;;;;;;;3.57;3.37;;;21.60;66.20;;;;;;6224578;28;20242;-81
2023/07/29 15:47:43;;;;;;;4.20;2.40;;;20.80;69.60;;;;;;6219352;28;20886;-78
2023/07/29 15:50:46;;;;;;;2.50;2.40;;;19.90;71.40;;;;;;6227659;28;20246;-82
2023/07/29 15:53:51;;;;;;;2.30;2.20;;;19.70;71.80;;;;;;6211085;28;20243;-80
2023/07/29 15:56:55;;;;;;;2.13;2.13;;;19.40;70.90;;;;;;6225702;28;20243;-80